createdAt,value
2023-11-18T00:00:00.538Z,2.60
2023-11-18T00:02:27.176Z,2.38
2023-11-18T00:04:53.994Z,2.55
2023-11-18T00:07:20.468Z,2.44
2023-11-18T00:09:46.902Z,2.62
2023-11-18T00:12:13.299Z,2.67
2023-11-18T00:14:42.959Z,2.54
2023-11-18T00:17:09.491Z,2.81
2023-11-18T00:19:36.019Z,2.73
2023-11-18T00:22:05.539Z,2.71
2023-11-18T00:24:31.949Z,2.46
2023-11-18T00:26:58.710Z,2.75
2023-11-18T00:29:25.453Z,2.42
2023-11-18T00:31:51.989Z,2.80
2023-11-18T00:34:18.912Z,3.16
2023-11-18T00:36:47.688Z,2.48
2023-11-18T00:39:17.080Z,3.10
2023-11-18T00:41:43.537Z,2.65
2023-11-18T00:44:10.006Z,3.50
2023-11-18T00:46:36.501Z,2.48
2023-11-18T00:49:03.209Z,2.95
2023-11-18T00:51:29.776Z,2.39
2023-11-18T00:53:58.693Z,2.35
2023-11-18T00:56:25.304Z,2.43
2023-11-18T00:58:52.427Z,2.24
2023-11-18T01:01:19.173Z,2.41
2023-11-18T01:03:45.798Z,2.16
2023-11-18T01:06:12.666Z,2.34
2023-11-18T01:08:39.364Z,2.51
2023-11-18T01:11:05.956Z,2.52
2023-11-18T01:13:34.968Z,2.48
2023-11-18T01:16:04.369Z,2.28
2023-11-18T01:18:31.063Z,2.46
2023-11-18T01:20:58.733Z,2.74
2023-11-18T01:23:27.334Z,2.99
2023-11-18T01:25:53.984Z,2.66
2023-11-18T01:28:20.710Z,2.68
2023-11-18T01:30:47.319Z,2.63
2023-11-18T01:33:14.178Z,2.27
2023-11-18T01:35:43.378Z,2.74
2023-11-18T01:38:10.043Z,2.63
2023-11-18T01:40:37.438Z,2.47
2023-11-18T01:43:04.094Z,2.64
2023-11-18T01:45:42.151Z,2.42
2023-11-18T01:48:09.488Z,2.23
2023-11-18T01:50:36.066Z,2.27
2023-11-18T01:53:03.183Z,2.40
2023-11-18T01:55:35.329Z,2.58
2023-11-18T01:58:01.917Z,2.75
2023-11-18T02:00:28.473Z,2.86
2023-11-18T02:02:55.457Z,2.33
2023-11-18T02:05:27.927Z,2.38
2023-11-18T02:07:54.401Z,2.68
2023-11-18T02:10:20.848Z,2.58
2023-11-18T02:12:47.453Z,2.88
2023-11-18T02:15:16.904Z,3.08
2023-11-18T02:17:43.546Z,2.47
2023-11-18T02:20:10.596Z,2.48
2023-11-18T02:22:37.093Z,2.54
2023-11-18T02:27:53.818Z,2.59
2023-11-18T02:30:41.694Z,2.48
2023-11-18T02:33:16.316Z,2.55
2023-11-18T02:35:43.848Z,2.33
2023-11-18T02:38:13.550Z,2.29
2023-11-18T02:40:40.447Z,2.59
2023-11-18T02:43:11.165Z,2.20
2023-11-18T02:45:43.825Z,2.37
2023-11-18T02:48:10.614Z,2.68
2023-11-18T02:50:37.674Z,2.82
2023-11-18T02:53:04.417Z,3.01
2023-11-18T02:55:34.903Z,3.58
2023-11-18T02:58:06.799Z,3.51
2023-11-18T03:00:33.660Z,3.60
2023-11-18T03:03:00.143Z,3.27
2023-11-18T03:05:26.729Z,3.33
2023-11-18T03:07:56.296Z,2.98
2023-11-18T03:10:23.261Z,2.78
2023-11-18T03:12:50.050Z,2.89
2023-11-18T03:15:17.486Z,2.86
2023-11-18T03:17:44.087Z,3.22
2023-11-18T03:20:10.789Z,3.45
2023-11-18T03:22:37.370Z,3.64
2023-11-18T03:25:04.074Z,2.75
2023-11-18T03:27:30.613Z,2.55
2023-11-18T03:29:57.417Z,2.72
2023-11-18T03:32:24.995Z,2.44
2023-11-18T03:34:51.671Z,2.38
2023-11-18T03:37:18.627Z,2.71
2023-11-18T03:39:45.192Z,2.52
2023-11-18T03:42:11.767Z,2.73
2023-11-18T03:44:38.436Z,2.56
2023-11-18T03:47:06.167Z,2.48
2023-11-18T03:49:37.105Z,2.59
2023-11-18T03:52:06.683Z,2.14
2023-11-18T03:54:33.276Z,2.33
2023-11-18T03:56:59.920Z,2.62
2023-11-18T03:59:26.525Z,2.68
2023-11-18T04:01:53.314Z,2.79
2023-11-18T04:04:20.055Z,2.59
2023-11-18T04:06:46.636Z,2.87
2023-11-18T04:09:13.471Z,2.45
2023-11-18T04:11:40.038Z,2.46
2023-11-18T04:14:10.499Z,2.19
2023-11-18T04:16:37.132Z,2.28
2023-11-18T04:19:03.581Z,2.45
2023-11-18T04:21:30.193Z,2.73
2023-11-18T04:23:56.591Z,2.67
2023-11-18T04:26:23.038Z,3.26
2023-11-18T04:28:49.498Z,3.30
2023-11-18T04:31:16.042Z,2.95
2023-11-18T04:33:42.485Z,2.68
2023-11-18T04:36:08.877Z,2.37
2023-11-18T04:38:35.311Z,2.34
2023-11-18T04:41:01.751Z,2.49
2023-11-18T04:43:35.036Z,2.90
2023-11-18T04:46:11.542Z,2.93
2023-11-18T04:48:40.771Z,2.79
2023-11-18T04:51:08.654Z,2.84
2023-11-18T04:53:35.139Z,2.93
2023-11-18T04:56:01.920Z,2.64
2023-11-18T04:58:28.378Z,2.73
2023-11-18T05:00:54.821Z,2.75
2023-11-18T05:03:21.527Z,2.99
2023-11-18T05:05:48.331Z,2.98
2023-11-18T05:08:18.878Z,2.91
2023-11-18T05:10:45.383Z,2.57
2023-11-18T05:13:11.799Z,2.29
2023-11-18T05:15:40.799Z,2.59
2023-11-18T05:18:07.894Z,2.89
2023-11-18T05:20:34.947Z,2.76
2023-11-18T05:23:01.669Z,2.60
2023-11-18T05:25:28.434Z,2.18
2023-11-18T05:27:57.174Z,2.28
2023-11-18T05:30:23.873Z,2.29
2023-11-18T05:32:50.520Z,2.31
2023-11-18T05:35:19.578Z,2.40
2023-11-18T05:37:46.147Z,2.69
2023-11-18T05:40:13.036Z,2.72
2023-11-18T05:42:40.480Z,2.41
2023-11-18T05:45:09.834Z,2.59
2023-11-18T05:47:37.630Z,2.48
2023-11-18T05:50:04.359Z,2.48
2023-11-18T05:52:31.172Z,2.39
2023-11-18T05:54:58.775Z,2.48
2023-11-18T05:57:25.299Z,2.47
2023-11-18T05:59:52.161Z,2.41
2023-11-18T06:02:18.764Z,2.40
2023-11-18T06:04:45.398Z,2.45
2023-11-18T06:07:20.083Z,2.50
2023-11-18T06:09:46.778Z,3.25
2023-11-18T06:12:13.440Z,3.59
2023-11-18T06:14:40.281Z,3.50
2023-11-18T06:17:07.243Z,4.15
2023-11-18T06:19:33.868Z,4.56
2023-11-18T06:22:00.411Z,4.99
2023-11-18T06:24:27.017Z,4.79
2023-11-18T06:26:53.630Z,4.73
2023-11-18T06:29:22.310Z,4.85
2023-11-18T06:31:49.029Z,4.80
2023-11-18T06:34:15.685Z,4.76
2023-11-18T06:36:42.275Z,5.07
2023-11-18T06:39:10.948Z,4.61
2023-11-18T06:41:37.694Z,4.69
2023-11-18T06:44:06.743Z,4.46
2023-11-18T06:46:33.404Z,4.55
2023-11-18T06:49:00.641Z,4.65
2023-11-18T06:51:27.782Z,4.65
2023-11-18T06:53:55.237Z,4.58
2023-11-18T06:56:21.949Z,4.61
2023-11-18T06:58:48.506Z,4.67
2023-11-18T07:01:15.242Z,5.49
2023-11-18T07:03:45.096Z,4.71
2023-11-18T07:06:11.797Z,4.29
2023-11-18T07:08:38.261Z,4.47
2023-11-18T07:11:04.713Z,5.17
2023-11-18T07:13:31.185Z,4.97
2023-11-18T07:15:57.612Z,4.72
2023-11-18T07:18:24.028Z,4.47
2023-11-18T07:20:50.446Z,4.72
2023-11-18T07:23:16.886Z,4.33
2023-11-18T07:25:43.379Z,4.59
2023-11-18T07:28:09.915Z,4.37
2023-11-18T07:30:36.520Z,4.39
2023-11-18T07:33:02.969Z,4.63
2023-11-18T07:35:29.665Z,4.51
2023-11-18T07:37:56.119Z,4.50
2023-11-18T07:40:22.532Z,4.50
2023-11-18T07:42:48.958Z,4.85
2023-11-18T07:45:15.482Z,4.53
2023-11-18T07:47:41.930Z,4.56
2023-11-18T07:50:08.413Z,4.80
2023-11-18T07:52:34.831Z,4.83
2023-11-18T07:55:01.221Z,4.47
2023-11-18T07:57:28.028Z,4.55
2023-11-18T07:59:54.624Z,4.41
2023-11-18T08:02:21.263Z,4.32
2023-11-18T08:04:48.108Z,4.42
2023-11-18T08:07:14.698Z,4.46
2023-11-18T08:09:41.347Z,4.28
2023-11-18T08:12:08.091Z,4.20
2023-11-18T08:14:34.682Z,4.26
2023-11-18T08:17:01.561Z,4.51
2023-11-18T08:19:28.204Z,4.20
2023-11-18T08:21:54.982Z,4.46
2023-11-18T08:24:23.865Z,4.65
2023-11-18T08:26:50.476Z,4.96
2023-11-18T08:29:17.830Z,4.95
2023-11-18T08:31:44.545Z,4.71
2023-11-18T08:34:11.227Z,4.79
2023-11-18T08:36:37.831Z,4.73
2023-11-18T08:39:04.404Z,4.68
2023-11-18T08:41:34.890Z,4.64
2023-11-18T08:44:13.677Z,4.71
2023-11-18T08:46:47.792Z,4.45
2023-11-18T08:49:14.325Z,4.70
2023-11-18T08:51:40.790Z,4.64
2023-11-18T08:54:07.198Z,4.53
2023-11-18T08:56:33.618Z,4.54
2023-11-18T08:59:00.372Z,4.99
2023-11-18T09:01:26.847Z,5.06
2023-11-18T09:03:54.028Z,4.71
2023-11-18T09:06:20.925Z,4.65
2023-11-18T09:08:50.417Z,4.55
2023-11-18T09:11:16.900Z,4.60
2023-11-18T09:13:43.465Z,4.58
2023-11-18T09:16:10.402Z,4.33
2023-11-18T09:18:40.481Z,4.58
2023-11-18T09:21:10.003Z,4.80
2023-11-18T09:23:36.806Z,5.08
2023-11-18T09:26:03.299Z,4.73
2023-11-18T09:28:29.809Z,4.95
2023-11-18T09:30:56.474Z,5.12
2023-11-18T09:33:23.062Z,4.30
2023-11-18T09:35:49.726Z,4.67
2023-11-18T09:38:16.174Z,4.43
2023-11-18T09:40:42.666Z,4.49
2023-11-18T09:43:09.796Z,4.60
2023-11-18T09:45:36.381Z,4.67
2023-11-18T09:48:03.083Z,4.53
2023-11-18T09:50:29.857Z,5.18
2023-11-18T09:52:56.577Z,5.05
2023-11-18T09:55:26.371Z,4.81
2023-11-18T09:57:54.785Z,4.39
2023-11-18T10:00:22.931Z,5.88
2023-11-18T10:02:49.794Z,5.58
2023-11-18T10:05:16.585Z,4.51
2023-11-18T10:07:43.542Z,4.70
2023-11-18T10:10:10.153Z,6.25
2023-11-18T10:12:36.776Z,5.60
2023-11-18T10:15:06.364Z,5.27
2023-11-18T10:17:32.974Z,6.20
2023-11-18T10:19:59.503Z,5.12
2023-11-18T10:22:25.910Z,5.20
2023-11-18T10:24:52.441Z,5.38
2023-11-18T10:27:18.882Z,5.52
2023-11-18T10:29:45.310Z,5.46
2023-11-18T10:32:11.936Z,5.02
2023-11-18T10:34:38.591Z,4.95
2023-11-18T10:37:05.087Z,5.68
2023-11-18T10:39:31.539Z,6.30
2023-11-18T10:42:01.001Z,6.05
2023-11-18T10:44:28.084Z,5.75
2023-11-18T10:46:54.621Z,5.75
2023-11-18T10:49:21.183Z,5.84
2023-11-18T10:51:47.584Z,5.66
2023-11-18T10:54:14.006Z,5.40
2023-11-18T10:56:40.768Z,5.12
2023-11-18T10:59:07.545Z,5.39
2023-11-18T11:01:34.239Z,5.00
2023-11-18T11:04:03.336Z,6.47
2023-11-18T11:06:31.115Z,5.17
2023-11-18T11:08:57.789Z,6.97
2023-11-18T11:11:24.245Z,8.35
2023-11-18T11:13:50.876Z,5.07
2023-11-18T11:16:17.483Z,4.90
2023-11-18T11:18:44.401Z,4.92
2023-11-18T11:21:10.989Z,5.23
2023-11-18T11:23:37.687Z,5.25
2023-11-18T11:26:04.302Z,5.31
2023-11-18T11:28:31.140Z,5.02
2023-11-18T11:31:00.580Z,8.33
2023-11-18T11:33:27.246Z,6.63
2023-11-18T11:35:53.802Z,5.60
2023-11-18T11:38:20.442Z,6.24
2023-11-18T11:40:47.048Z,4.55
2023-11-18T11:43:13.744Z,4.31
2023-11-18T11:45:40.491Z,4.37
2023-11-18T11:48:07.413Z,5.24
2023-11-18T11:50:34.440Z,7.88
2023-11-18T11:53:01.595Z,8.89
2023-11-18T11:55:29.307Z,6.77
2023-11-18T11:57:56.278Z,5.66
2023-11-18T12:00:23.108Z,7.89
2023-11-18T12:02:49.807Z,6.10
2023-11-18T12:05:16.583Z,4.16
2023-11-18T12:07:43.415Z,4.32
2023-11-18T12:10:09.977Z,4.93
2023-11-18T12:12:36.641Z,5.51
2023-11-18T12:15:05.785Z,6.41
2023-11-18T12:17:32.439Z,4.42
2023-11-18T12:19:59.535Z,5.99
2023-11-18T12:22:26.378Z,10.47
2023-11-18T12:24:55.222Z,7.61
2023-11-18T12:27:25.685Z,7.51
2023-11-18T12:29:52.253Z,5.11
2023-11-18T12:32:18.860Z,6.93
2023-11-18T12:34:45.326Z,5.50
2023-11-18T12:37:11.803Z,3.76
2023-11-18T12:39:38.704Z,5.30
2023-11-18T12:42:05.108Z,4.81
2023-11-18T12:44:31.530Z,3.86
2023-11-18T12:46:57.974Z,3.90
2023-11-18T12:49:24.696Z,3.88
2023-11-18T12:51:51.298Z,3.68
2023-11-18T12:54:17.721Z,3.96
2023-11-18T12:56:44.139Z,4.82
2023-11-18T12:59:10.604Z,3.80
2023-11-18T13:01:37.295Z,2.83
2023-11-18T13:04:04.022Z,2.35
2023-11-18T13:06:30.623Z,2.56
2023-11-18T13:08:57.022Z,2.24
2023-11-18T13:11:23.521Z,2.25
2023-11-18T13:13:50.015Z,2.10
2023-11-18T13:16:16.513Z,1.91
2023-11-18T13:18:43.045Z,1.98
2023-11-18T13:21:09.468Z,2.07
2023-11-18T13:23:36.026Z,2.02
2023-11-18T13:26:02.444Z,2.40
2023-11-18T13:28:28.928Z,1.90
2023-11-18T13:30:55.359Z,1.96
2023-11-18T13:33:22.002Z,2.35
2023-11-18T13:35:51.216Z,2.61
2023-11-18T13:38:18.403Z,2.79
2023-11-18T13:40:45.006Z,1.83
2023-11-18T13:43:11.542Z,2.69
2023-11-18T13:45:38.816Z,3.55
2023-11-18T13:48:05.690Z,2.04
2023-11-18T13:50:32.354Z,1.94
2023-11-18T13:52:58.829Z,2.37
2023-11-18T13:55:25.339Z,2.39
2023-11-18T13:57:51.732Z,2.57
2023-11-18T14:00:18.145Z,2.00
2023-11-18T14:02:44.782Z,2.12
2023-11-18T14:05:11.434Z,2.28
2023-11-18T14:07:37.838Z,2.17
2023-11-18T14:10:04.252Z,2.09
2023-11-18T14:12:30.710Z,2.13
2023-11-18T14:14:57.175Z,2.08
2023-11-18T14:17:23.696Z,1.75
2023-11-18T14:19:50.248Z,1.99
2023-11-18T14:22:16.670Z,2.05
2023-11-18T14:24:43.073Z,1.89
2023-11-18T14:27:09.556Z,1.99
2023-11-18T14:29:36.026Z,1.75
2023-11-18T14:32:02.617Z,1.93
2023-11-18T14:34:31.441Z,1.74
2023-11-18T14:36:57.839Z,1.86
2023-11-18T14:39:24.439Z,1.97
2023-11-18T14:41:50.929Z,2.13
2023-11-18T14:44:17.446Z,1.85
2023-11-18T14:46:43.953Z,2.15
2023-11-18T14:49:10.426Z,2.05
2023-11-18T14:51:36.982Z,1.92
2023-11-18T14:54:03.810Z,2.15
2023-11-18T14:56:30.416Z,2.25
2023-11-18T14:58:56.994Z,3.00
2023-11-18T15:01:23.631Z,2.57
2023-11-18T15:03:50.622Z,2.26
2023-11-18T15:06:17.325Z,2.27
2023-11-18T15:08:46.481Z,2.13
2023-11-18T15:11:13.318Z,2.48
2023-11-18T15:13:40.265Z,2.25
2023-11-18T15:16:06.849Z,2.11
2023-11-18T15:18:33.818Z,1.97
2023-11-18T15:21:00.395Z,1.75
2023-11-18T15:23:27.278Z,2.02
2023-11-18T15:25:53.986Z,2.17
2023-11-18T15:28:20.580Z,2.67
2023-11-18T15:30:47.234Z,2.93
2023-11-18T15:33:14.001Z,2.95
2023-11-18T15:35:40.933Z,2.79
2023-11-18T15:38:07.531Z,2.75
2023-11-18T15:40:34.120Z,2.67
2023-11-18T15:43:00.764Z,2.66
2023-11-18T15:45:27.559Z,2.99
2023-11-18T15:47:54.360Z,2.44
2023-11-18T15:50:20.944Z,2.36
2023-11-18T15:52:47.508Z,2.64
2023-11-18T15:55:14.114Z,2.75
2023-11-18T15:57:40.662Z,2.73
2023-11-18T16:00:07.254Z,2.48
2023-11-18T16:02:33.912Z,2.34
2023-11-18T16:05:00.622Z,2.97
2023-11-18T16:07:27.228Z,2.55
2023-11-18T16:10:00.058Z,2.48
2023-11-18T16:12:26.627Z,2.89
2023-11-18T16:14:53.428Z,4.05
2023-11-18T16:17:20.043Z,3.83
2023-11-18T16:19:46.681Z,3.33
2023-11-18T16:22:13.329Z,3.42
2023-11-18T16:24:39.982Z,3.44
2023-11-18T16:27:07.328Z,3.56
2023-11-18T16:29:36.916Z,3.68
2023-11-18T16:32:03.607Z,2.82
2023-11-18T16:34:30.305Z,3.37
2023-11-18T16:36:57.260Z,3.28
2023-11-18T16:39:23.930Z,3.48
2023-11-18T16:41:50.551Z,3.71
2023-11-18T16:44:17.029Z,3.94
2023-11-18T16:46:43.474Z,3.91
2023-11-18T16:49:09.978Z,3.94
2023-11-18T16:51:36.429Z,3.87
2023-11-18T16:54:02.842Z,3.48
2023-11-18T16:56:29.338Z,3.33
2023-11-18T16:58:55.796Z,4.15
2023-11-18T17:01:22.221Z,4.36
2023-11-18T17:03:51.832Z,4.11
2023-11-18T17:06:18.303Z,4.41
2023-11-18T17:08:44.740Z,4.26
2023-11-18T17:11:11.260Z,4.49
2023-11-18T17:13:37.708Z,4.13
2023-11-18T17:16:04.193Z,3.77
2023-11-18T17:18:30.759Z,4.30
2023-11-18T17:20:57.266Z,4.17
2023-11-18T17:23:23.786Z,4.16
2023-11-18T17:25:50.377Z,5.07
2023-11-18T17:28:17.982Z,4.98
2023-11-18T17:30:44.554Z,5.49
2023-11-18T17:33:11.079Z,4.06
2023-11-18T17:35:37.636Z,4.42
2023-11-18T17:38:04.111Z,4.74
2023-11-18T17:40:30.791Z,4.62
2023-11-18T17:42:59.652Z,4.95
2023-11-18T17:45:26.220Z,4.17
2023-11-18T17:47:52.804Z,4.07
2023-11-18T17:50:23.007Z,4.46
2023-11-18T17:52:52.407Z,4.93
2023-11-18T17:55:19.378Z,4.94
2023-11-18T17:57:46.256Z,4.37
2023-11-18T18:00:12.961Z,5.21
2023-11-18T18:02:39.845Z,5.37
2023-11-18T18:05:06.498Z,5.05
2023-11-18T18:07:33.139Z,5.34
2023-11-18T18:09:59.742Z,5.17
2023-11-18T18:12:26.357Z,5.25
2023-11-18T18:14:53.441Z,5.04
2023-11-18T18:17:20.060Z,5.47
2023-11-18T18:19:46.643Z,8.68
2023-11-18T18:25:17.759Z,4.60
2023-11-18T18:27:44.385Z,4.55
2023-11-18T18:30:10.950Z,4.81
2023-11-18T18:32:37.727Z,4.63
2023-11-18T18:35:04.532Z,5.02
2023-11-18T18:37:31.224Z,4.69
2023-11-18T18:39:57.881Z,4.51
2023-11-18T18:42:24.605Z,4.20
2023-11-18T18:44:51.187Z,4.68
2023-11-18T18:47:20.218Z,5.02
2023-11-18T18:49:48.316Z,4.81
2023-11-18T18:52:14.881Z,4.69
2023-11-18T18:54:41.528Z,4.51
2023-11-18T18:57:08.167Z,4.62
2023-11-18T18:59:34.678Z,4.57
2023-11-18T19:02:06.145Z,4.63
2023-11-18T19:04:32.919Z,4.33
2023-11-18T19:06:59.353Z,4.37
2023-11-18T19:09:28.790Z,4.58
2023-11-18T19:11:55.191Z,4.62
2023-11-18T19:14:24.691Z,5.47
2023-11-18T19:16:51.233Z,5.61
2023-11-18T19:19:17.787Z,5.33
2023-11-18T19:21:44.541Z,6.11
2023-11-18T19:24:10.984Z,5.29
2023-11-18T19:26:37.584Z,5.23
2023-11-18T19:29:04.103Z,5.32
2023-11-18T19:31:30.535Z,4.93
2023-11-18T19:33:57.008Z,5.47
2023-11-18T19:36:23.546Z,5.73
2023-11-18T19:38:50.083Z,5.63
2023-11-18T19:41:16.531Z,5.38
2023-11-18T19:43:43.165Z,4.92
2023-11-18T19:46:11.155Z,4.97
2023-11-18T19:48:37.814Z,4.76
2023-11-18T19:51:04.292Z,4.65
2023-11-18T19:53:30.788Z,4.58
2023-11-18T19:55:57.485Z,4.50
2023-11-18T19:58:24.107Z,5.07
2023-11-18T20:00:50.738Z,5.50
2023-11-18T20:03:17.326Z,5.06
2023-11-18T20:05:44.087Z,4.34
2023-11-18T20:08:10.747Z,4.59
2023-11-18T20:10:37.261Z,4.53
2023-11-18T20:13:03.712Z,4.10
2023-11-18T20:15:30.169Z,4.20
2023-11-18T20:17:56.711Z,4.50
2023-11-18T20:20:23.238Z,4.12
2023-11-18T20:22:54.904Z,4.10
2023-11-18T20:25:21.850Z,3.96
2023-11-18T20:27:48.460Z,4.09
2023-11-18T20:30:15.065Z,3.93
2023-11-18T20:32:41.542Z,4.18
2023-11-18T20:35:08.049Z,4.42
2023-11-18T20:37:34.508Z,3.72
2023-11-18T20:40:01.042Z,4.98
2023-11-18T20:42:27.752Z,4.44
2023-11-18T20:44:54.257Z,4.23
2023-11-18T20:47:20.770Z,3.87
2023-11-18T20:49:47.203Z,4.35
2023-11-18T20:52:13.653Z,4.25
2023-11-18T20:54:40.152Z,4.54
2023-11-18T20:57:06.596Z,4.09
2023-11-18T20:59:33.201Z,3.75
2023-11-18T21:01:59.820Z,3.83
2023-11-18T21:04:26.620Z,4.35
2023-11-18T21:06:53.123Z,4.06
2023-11-18T21:09:19.582Z,3.91
2023-11-18T21:11:46.008Z,4.63
2023-11-18T21:14:12.413Z,4.57
2023-11-18T21:16:38.883Z,4.46
2023-11-18T21:19:05.533Z,5.52
2023-11-18T21:21:32.036Z,4.99
2023-11-18T21:23:58.511Z,4.90
2023-11-18T21:26:24.935Z,4.21
2023-11-18T21:28:51.359Z,4.61
2023-11-18T21:31:17.962Z,4.32
2023-11-18T21:33:47.496Z,4.71
2023-11-18T21:36:13.941Z,4.57
2023-11-18T21:38:40.414Z,4.22
2023-11-18T21:41:07.019Z,4.62
2023-11-18T21:43:33.429Z,5.02
2023-11-18T21:45:59.957Z,4.41
2023-11-18T21:48:26.445Z,4.55
2023-11-18T21:50:53.031Z,4.16
2023-11-18T21:53:19.470Z,4.11
2023-11-18T21:55:47.077Z,4.80
2023-11-18T21:58:13.500Z,4.46
2023-11-18T22:00:45.364Z,4.97
2023-11-18T22:03:12.349Z,4.49
2023-11-18T22:05:39.090Z,4.62
2023-11-18T22:08:05.716Z,4.63
2023-11-18T22:10:32.281Z,4.37
2023-11-18T22:12:59.006Z,4.32
2023-11-18T22:15:25.610Z,4.22
2023-11-18T22:17:52.232Z,3.92
2023-11-18T22:20:19.131Z,4.14
2023-11-18T22:22:45.720Z,4.06
2023-11-18T22:25:12.137Z,3.83
2023-11-18T22:27:38.643Z,3.61
2023-11-18T22:30:05.168Z,3.64
2023-11-18T22:32:31.674Z,3.60
2023-11-18T22:34:58.230Z,3.32
2023-11-18T22:37:24.813Z,3.55
2023-11-18T22:39:51.195Z,3.41
2023-11-18T22:42:17.640Z,3.72
2023-11-18T22:44:44.173Z,3.85
2023-11-18T22:47:10.664Z,3.56
2023-11-18T22:49:37.196Z,4.38
2023-11-18T22:52:03.643Z,3.81
2023-11-18T22:54:30.060Z,4.02
2023-11-18T22:56:56.629Z,3.86
2023-11-18T22:59:23.075Z,3.77
2023-11-18T23:01:49.701Z,4.02
2023-11-18T23:04:16.309Z,4.11
2023-11-18T23:06:43.065Z,3.78
2023-11-18T23:09:09.491Z,3.61
2023-11-18T23:11:35.920Z,3.44
2023-11-18T23:14:02.353Z,3.54
2023-11-18T23:16:28.779Z,3.66
2023-11-18T23:18:55.476Z,3.49
2023-11-18T23:21:21.978Z,3.73
2023-11-18T23:23:48.526Z,3.81
2023-11-18T23:26:15.134Z,4.08
2023-11-18T23:28:41.699Z,3.71
2023-11-18T23:31:08.168Z,4.20
2023-11-18T23:33:34.970Z,3.76
2023-11-18T23:36:01.559Z,3.83
2023-11-18T23:38:28.068Z,3.83
2023-11-18T23:40:54.470Z,3.83
2023-11-18T23:43:21.068Z,3.50
2023-11-18T23:45:47.524Z,3.79
2023-11-18T23:48:14.010Z,4.18
2023-11-18T23:50:40.490Z,4.23
2023-11-18T23:53:06.904Z,4.17
2023-11-18T23:55:33.349Z,3.99
2023-11-18T23:57:59.772Z,4.07
